createdAt,value
2019-01-16T00:00:14.020Z,2.60
2019-01-16T00:03:00.377Z,2.60
2019-01-16T00:05:30.462Z,2.50
2019-01-16T00:08:12.340Z,2.60
2019-01-16T00:10:42.430Z,2.50
2019-01-16T00:13:15.244Z,2.50
2019-01-16T00:15:51.034Z,2.50
2019-01-16T00:18:23.765Z,2.50
2019-01-16T00:21:09.907Z,2.50
2019-01-16T00:23:39.921Z,2.50
2019-01-16T00:26:10.114Z,2.60
2019-01-16T00:28:40.157Z,2.60
2019-01-16T00:31:28.186Z,2.50
2019-01-16T00:34:00.689Z,2.60
2019-01-16T00:36:45.278Z,2.50
2019-01-16T00:39:15.348Z,2.50
2019-01-16T00:41:47.908Z,2.50
2019-01-16T00:44:34.521Z,2.50
2019-01-16T00:47:07.523Z,2.50
2019-01-16T00:49:43.580Z,2.50
2019-01-16T00:52:16.668Z,2.50
2019-01-16T00:54:52.516Z,2.60
2019-01-16T00:57:22.594Z,2.60
2019-01-16T00:59:55.091Z,2.60
2019-01-16T01:02:41.092Z,2.60
2019-01-16T01:05:27.348Z,2.60
2019-01-16T01:07:59.820Z,2.60
2019-01-16T01:10:32.458Z,2.60
2019-01-16T01:13:03.564Z,2.60
2019-01-16T01:15:49.853Z,2.60
2019-01-16T01:18:19.956Z,2.60
2019-01-16T01:20:50.053Z,2.60
2019-01-16T01:23:22.860Z,2.50
2019-01-16T01:25:53.008Z,2.60
2019-01-16T01:28:25.808Z,2.60
2019-01-16T01:30:58.722Z,2.60
2019-01-16T01:33:31.238Z,2.60
2019-01-16T01:36:07.063Z,2.60
2019-01-16T01:38:45.733Z,2.60
2019-01-16T01:41:31.826Z,2.60
2019-01-16T01:44:05.623Z,2.60
2019-01-16T01:46:38.650Z,2.60
2019-01-16T01:49:08.766Z,2.50
2019-01-16T01:51:54.631Z,2.60
2019-01-16T01:54:36.125Z,2.60
2019-01-16T01:57:14.742Z,2.50
2019-01-16T01:59:50.732Z,2.60
2019-01-16T02:02:29.906Z,2.60
2019-01-16T02:04:59.990Z,2.60
2019-01-16T02:07:45.102Z,2.60
2019-01-16T02:10:15.386Z,2.50
2019-01-16T02:12:45.472Z,2.50
2019-01-16T02:15:15.679Z,2.50
2019-01-16T02:17:45.825Z,2.50
2019-01-16T02:20:22.197Z,2.40
2019-01-16T02:23:04.132Z,2.40
2019-01-16T02:25:36.803Z,2.40
2019-01-16T02:28:09.875Z,2.40
2019-01-16T02:30:42.695Z,2.40
2019-01-16T02:33:28.710Z,2.40
2019-01-16T02:35:58.848Z,2.40
2019-01-16T02:38:28.866Z,2.40
2019-01-16T02:41:02.062Z,2.40
2019-01-16T02:43:35.000Z,2.40
2019-01-16T02:46:14.971Z,2.40
2019-01-16T02:48:55.655Z,2.40
2019-01-16T02:51:19.521Z,2.40
2019-01-16T02:53:49.612Z,2.40
2019-01-16T02:56:19.638Z,2.50
2019-01-16T02:58:55.440Z,2.50
2019-01-16T03:01:25.526Z,2.50
2019-01-16T03:04:11.702Z,2.50
2019-01-16T03:06:58.107Z,2.50
2019-01-16T03:09:30.675Z,2.40
2019-01-16T03:12:03.587Z,2.50
2019-01-16T03:14:39.237Z,2.40
2019-01-16T03:17:24.121Z,2.40
2019-01-16T03:19:54.210Z,2.40
2019-01-16T03:22:42.046Z,2.40
2019-01-16T03:25:12.153Z,2.40
2019-01-16T03:27:52.207Z,2.30
2019-01-16T03:30:22.330Z,2.40
2019-01-16T03:32:55.352Z,2.30
2019-01-16T03:35:25.415Z,2.30
2019-01-16T03:38:13.362Z,2.30
2019-01-16T03:40:52.193Z,2.30
2019-01-16T03:43:28.315Z,2.40
2019-01-16T03:45:58.509Z,2.40
2019-01-16T03:48:28.553Z,2.30
2019-01-16T03:51:10.813Z,2.40
2019-01-16T03:53:40.825Z,2.40
2019-01-16T03:56:10.949Z,2.40
2019-01-16T03:58:41.034Z,2.40
2019-01-16T04:01:27.253Z,2.40
2019-01-16T04:04:02.983Z,2.40
2019-01-16T04:06:33.094Z,2.40
2019-01-16T04:09:08.642Z,2.40
2019-01-16T04:11:41.404Z,2.40
2019-01-16T04:14:11.502Z,2.40
2019-01-16T04:16:50.459Z,2.40
2019-01-16T04:19:32.335Z,2.40
2019-01-16T04:22:08.153Z,2.50
2019-01-16T04:24:54.507Z,2.50
2019-01-16T04:27:24.594Z,2.50
2019-01-16T04:29:54.686Z,2.40
2019-01-16T04:32:36.831Z,2.40
2019-01-16T04:35:19.061Z,2.50
2019-01-16T04:37:52.186Z,2.50
2019-01-16T04:40:33.781Z,2.50
2019-01-16T04:43:03.853Z,2.50
2019-01-16T04:45:42.361Z,2.50
2019-01-16T04:48:27.312Z,2.50
2019-01-16T04:51:06.186Z,2.50
2019-01-16T04:53:36.327Z,2.50
2019-01-16T04:56:12.024Z,2.50
2019-01-16T04:58:48.242Z,2.50
2019-01-16T05:01:30.197Z,2.50
2019-01-16T05:04:02.877Z,2.40
2019-01-16T05:06:38.731Z,2.40
2019-01-16T05:09:15.032Z,2.40
2019-01-16T05:11:50.659Z,2.40
2019-01-16T05:14:23.276Z,2.40
2019-01-16T05:17:08.267Z,2.40
2019-01-16T05:19:38.992Z,2.40
2019-01-16T05:22:09.162Z,2.40
2019-01-16T05:24:47.830Z,2.40
2019-01-16T05:27:29.460Z,2.30
2019-01-16T05:30:03.387Z,2.40
2019-01-16T05:32:36.175Z,2.30
2019-01-16T05:35:10.077Z,2.30
2019-01-16T05:37:54.762Z,2.30
2019-01-16T05:40:33.721Z,2.30
2019-01-16T05:43:06.445Z,2.30
2019-01-16T05:45:45.303Z,2.30
2019-01-16T05:48:31.206Z,2.30
2019-01-16T05:51:04.253Z,2.30
2019-01-16T05:53:46.171Z,2.30
2019-01-16T05:56:19.254Z,2.30
2019-01-16T05:59:03.398Z,2.30
2019-01-16T06:01:36.770Z,2.30
2019-01-16T06:04:23.379Z,2.30
2019-01-16T06:06:59.228Z,2.30
2019-01-16T06:09:34.845Z,2.30
2019-01-16T06:12:20.916Z,2.30
2019-01-16T06:14:56.398Z,2.20
2019-01-16T06:17:32.212Z,2.20
2019-01-16T06:20:02.372Z,2.20
2019-01-16T06:22:37.943Z,2.20
2019-01-16T06:25:08.618Z,2.30
2019-01-16T06:27:53.510Z,2.30
2019-01-16T06:30:38.691Z,2.30
2019-01-16T06:33:14.554Z,2.20
2019-01-16T06:36:00.665Z,2.20
2019-01-16T06:38:30.709Z,2.20
2019-01-16T06:41:09.612Z,2.20
2019-01-16T06:43:42.314Z,2.20
2019-01-16T06:46:15.092Z,2.20
2019-01-16T06:48:53.719Z,2.20
2019-01-16T06:51:23.797Z,2.20
2019-01-16T06:53:53.948Z,2.10
2019-01-16T06:56:39.797Z,2.20
2019-01-16T06:59:12.571Z,2.20
2019-01-16T07:01:45.570Z,2.20
2019-01-16T07:04:18.661Z,2.20
2019-01-16T07:06:48.724Z,2.20
2019-01-16T07:09:21.740Z,2.20
2019-01-16T07:11:51.888Z,2.30
2019-01-16T07:14:27.721Z,2.30
2019-01-16T07:16:57.811Z,2.30
2019-01-16T07:19:36.605Z,2.30
2019-01-16T07:22:12.030Z,2.30
2019-01-16T07:24:44.522Z,2.30
2019-01-16T07:27:23.165Z,2.30
2019-01-16T07:29:59.249Z,2.40
2019-01-16T07:32:29.383Z,2.40
2019-01-16T07:35:05.021Z,2.40
2019-01-16T07:37:35.114Z,2.40
2019-01-16T07:40:23.928Z,2.40
2019-01-16T07:43:03.797Z,2.40
2019-01-16T07:45:33.943Z,2.40
2019-01-16T07:48:09.483Z,2.50
2019-01-16T07:50:51.604Z,2.50
2019-01-16T07:53:38.021Z,2.50
2019-01-16T07:56:09.285Z,2.50
2019-01-16T07:58:55.528Z,2.50
2019-01-16T08:01:31.568Z,2.60
2019-01-16T08:04:17.630Z,2.50
2019-01-16T08:06:47.740Z,2.60
2019-01-16T08:09:26.683Z,2.60
2019-01-16T08:12:13.175Z,2.60
2019-01-16T08:14:49.296Z,2.60
2019-01-16T08:17:19.305Z,2.60
2019-01-16T08:20:01.689Z,2.60
2019-01-16T08:22:43.707Z,2.70
2019-01-16T08:25:13.816Z,2.70
2019-01-16T08:27:52.769Z,2.70
2019-01-16T08:30:22.942Z,2.70
2019-01-16T08:32:53.047Z,2.60
2019-01-16T08:35:26.289Z,2.60
2019-01-16T08:38:12.629Z,2.70
2019-01-16T08:40:48.475Z,2.60
2019-01-16T08:43:24.527Z,2.60
2019-01-16T08:45:54.658Z,2.60
2019-01-16T08:48:30.902Z,2.60
2019-01-16T08:51:17.329Z,2.60
2019-01-16T08:53:56.232Z,2.60
2019-01-16T08:56:44.408Z,2.60
2019-01-16T08:59:32.612Z,2.60
2019-01-16T09:02:19.037Z,2.70
2019-01-16T09:04:49.087Z,2.70
2019-01-16T09:07:30.823Z,2.70
2019-01-16T09:10:15.803Z,2.80
2019-01-16T09:12:54.975Z,2.80
2019-01-16T09:15:34.549Z,2.70
2019-01-16T09:17:59.827Z,2.70
2019-01-16T09:20:29.849Z,2.80
2019-01-16T09:23:02.033Z,2.80
2019-01-16T09:25:37.821Z,2.90
2019-01-16T09:28:07.926Z,2.90
2019-01-16T09:30:49.815Z,2.90
2019-01-16T09:33:25.942Z,2.90
2019-01-16T09:35:55.957Z,2.90
2019-01-16T09:38:34.876Z,3.00
2019-01-16T09:41:23.008Z,3.00
2019-01-16T09:43:53.115Z,3.00
2019-01-16T09:46:40.955Z,3.00
2019-01-16T09:49:11.116Z,3.10
2019-01-16T09:51:53.135Z,3.10
2019-01-16T09:54:23.521Z,3.10
2019-01-16T09:57:05.448Z,3.20
2019-01-16T09:59:37.950Z,3.10
2019-01-16T10:02:08.140Z,3.20
2019-01-16T10:04:40.891Z,3.20
2019-01-16T10:07:19.410Z,3.30
2019-01-16T10:10:01.928Z,3.30
2019-01-16T10:12:44.088Z,3.30
2019-01-16T10:15:27.282Z,3.40
2019-01-16T10:18:06.637Z,3.30
2019-01-16T10:20:46.311Z,3.30
2019-01-16T10:23:16.640Z,3.40
2019-01-16T10:25:46.775Z,3.30
2019-01-16T10:28:25.616Z,3.30
2019-01-16T10:30:58.392Z,3.20
2019-01-16T10:33:34.155Z,3.20
2019-01-16T10:36:06.971Z,3.20
2019-01-16T10:38:37.045Z,3.10
2019-01-16T10:41:23.131Z,3.10
2019-01-16T10:44:09.216Z,3.20
2019-01-16T10:46:41.892Z,3.10
2019-01-16T10:49:27.649Z,3.20
2019-01-16T10:52:12.593Z,3.20
2019-01-16T10:54:45.660Z,3.20
2019-01-16T10:57:33.947Z,3.20
2019-01-16T11:00:04.178Z,3.20
2019-01-16T11:02:34.306Z,3.30
2019-01-16T11:05:04.535Z,3.30
2019-01-16T11:07:43.768Z,3.30
2019-01-16T11:10:26.227Z,3.20
2019-01-16T11:13:05.425Z,3.20
2019-01-16T11:15:46.998Z,3.20
2019-01-16T11:18:17.092Z,3.20
2019-01-16T11:20:47.281Z,3.20
2019-01-16T11:23:33.562Z,3.30
2019-01-16T11:26:12.661Z,3.30
2019-01-16T11:28:42.794Z,3.30
2019-01-16T11:31:18.669Z,3.30
2019-01-16T11:34:01.273Z,3.40
2019-01-16T11:36:31.477Z,3.40
2019-01-16T11:39:04.242Z,3.50
2019-01-16T11:41:40.560Z,3.50
2019-01-16T11:44:10.581Z,3.60
2019-01-16T11:46:43.829Z,3.50
2019-01-16T11:49:19.645Z,3.40
2019-01-16T11:51:49.793Z,3.30
2019-01-16T11:54:22.838Z,3.30
2019-01-16T11:57:11.776Z,3.30
2019-01-16T11:59:47.583Z,3.30
2019-01-16T12:02:23.137Z,3.30
2019-01-16T12:04:55.917Z,3.30
2019-01-16T12:07:32.092Z,3.30
2019-01-16T12:10:04.946Z,3.40
2019-01-16T12:12:49.849Z,3.40
2019-01-16T12:15:19.890Z,3.40
2019-01-16T12:18:02.000Z,3.30
2019-01-16T12:20:37.814Z,3.40
2019-01-16T12:23:13.941Z,3.40
2019-01-16T12:25:53.046Z,3.40
2019-01-16T12:28:26.107Z,3.30
2019-01-16T12:31:01.583Z,3.30
2019-01-16T12:33:34.606Z,3.20
2019-01-16T12:36:10.584Z,3.20
2019-01-16T12:38:40.665Z,3.10
2019-01-16T12:41:13.159Z,3.10
2019-01-16T12:43:45.812Z,3.10
2019-01-16T12:46:31.606Z,3.20
2019-01-16T12:49:10.790Z,3.20
2019-01-16T12:51:46.537Z,3.20
2019-01-16T12:54:16.591Z,3.20
2019-01-16T12:56:46.705Z,3.00
2019-01-16T12:59:19.639Z,3.10
2019-01-16T13:01:49.756Z,3.10
2019-01-16T13:04:25.910Z,3.10
2019-01-16T13:06:58.748Z,3.10
2019-01-16T13:09:31.263Z,3.20
2019-01-16T13:12:07.089Z,3.00
2019-01-16T13:14:42.974Z,3.10
2019-01-16T13:17:13.045Z,3.10
2019-01-16T13:19:43.098Z,3.10
2019-01-16T13:22:21.839Z,3.20
2019-01-16T13:24:57.821Z,3.20
2019-01-16T13:27:33.671Z,3.10
2019-01-16T13:30:03.714Z,3.10
2019-01-16T13:32:33.776Z,3.00
2019-01-16T13:35:09.701Z,3.00
2019-01-16T13:37:39.778Z,3.00
2019-01-16T13:40:16.068Z,3.00
2019-01-16T13:42:51.847Z,2.90
2019-01-16T13:45:38.220Z,3.00
2019-01-16T13:48:17.166Z,2.90
2019-01-16T13:50:59.177Z,2.90
2019-01-16T13:53:38.057Z,2.90
2019-01-16T13:56:24.430Z,2.90
2019-01-16T13:59:03.326Z,2.90
2019-01-16T14:01:33.406Z,2.90
2019-01-16T14:04:11.989Z,2.80
2019-01-16T14:06:44.800Z,2.80
2019-01-16T14:09:14.935Z,2.80
2019-01-16T14:11:56.572Z,2.80
2019-01-16T14:14:42.848Z,2.80
2019-01-16T14:17:12.946Z,2.70
2019-01-16T14:19:48.788Z,2.70
2019-01-16T14:22:18.824Z,2.60
2019-01-16T14:24:48.915Z,2.70
2019-01-16T14:27:35.043Z,2.60
2019-01-16T14:30:15.361Z,2.70
2019-01-16T14:33:00.973Z,2.70
2019-01-16T14:35:33.787Z,2.70
2019-01-16T14:38:06.417Z,2.70
2019-01-16T14:40:37.357Z,2.70
2019-01-16T14:43:07.650Z,2.60
2019-01-16T14:45:40.379Z,2.60
2019-01-16T14:48:13.581Z,2.60
2019-01-16T14:50:43.797Z,2.60
2019-01-16T14:53:32.199Z,2.60
2019-01-16T14:56:02.221Z,2.60
2019-01-16T14:58:37.972Z,2.50
2019-01-16T15:01:16.872Z,2.50
2019-01-16T15:03:49.441Z,2.50
2019-01-16T15:06:19.573Z,2.50
2019-01-16T15:09:05.957Z,2.50
2019-01-16T15:11:41.731Z,2.50
2019-01-16T15:14:17.826Z,2.50
2019-01-16T15:17:06.054Z,2.40
2019-01-16T15:19:42.216Z,2.30
2019-01-16T15:22:29.886Z,2.30
2019-01-16T15:25:02.722Z,2.20
2019-01-16T15:27:41.613Z,2.20
2019-01-16T15:30:18.049Z,2.20
2019-01-16T15:33:04.233Z,2.10
2019-01-16T15:35:37.238Z,2.10
2019-01-16T15:38:07.436Z,2.10
2019-01-16T15:40:40.377Z,2.10
2019-01-16T15:43:16.247Z,2.10
2019-01-16T15:45:55.376Z,2.10
2019-01-16T15:48:28.452Z,2.00
2019-01-16T15:51:04.318Z,2.00
2019-01-16T15:53:49.216Z,2.00
2019-01-16T15:56:19.300Z,1.90
2019-01-16T15:58:49.406Z,1.80
2019-01-16T16:01:28.250Z,1.80
2019-01-16T16:04:13.361Z,1.80
2019-01-16T16:06:43.437Z,1.80
2019-01-16T16:09:15.999Z,1.80
2019-01-16T16:11:48.745Z,1.80
2019-01-16T16:14:27.611Z,1.80
2019-01-16T16:16:57.662Z,1.80
2019-01-16T16:19:39.530Z,1.80
2019-01-16T16:22:21.486Z,1.80
2019-01-16T16:25:07.687Z,1.80
2019-01-16T16:27:37.712Z,1.90
2019-01-16T16:30:26.903Z,1.90
2019-01-16T16:33:02.804Z,1.90
2019-01-16T16:35:45.059Z,1.90
2019-01-16T16:38:18.131Z,1.90
2019-01-16T16:41:06.377Z,1.90
2019-01-16T16:43:39.298Z,1.90
2019-01-16T16:46:25.213Z,1.90
2019-01-16T16:49:04.074Z,1.90
2019-01-16T16:51:46.338Z,1.90
2019-01-16T16:54:32.346Z,1.90
2019-01-16T16:57:17.289Z,1.90
2019-01-16T16:59:50.166Z,1.90
2019-01-16T17:02:26.090Z,2.00
2019-01-16T17:05:01.722Z,2.00
2019-01-16T17:07:34.507Z,1.90
2019-01-16T17:10:04.777Z,1.90
2019-01-16T17:12:51.151Z,1.90
2019-01-16T17:15:27.268Z,1.90
2019-01-16T17:17:57.354Z,1.90
2019-01-16T17:20:43.681Z,1.90
2019-01-16T17:23:29.970Z,1.90
2019-01-16T17:26:15.019Z,1.80
2019-01-16T17:28:50.902Z,1.80
2019-01-16T17:31:39.081Z,1.80
2019-01-16T17:34:23.754Z,1.80
2019-01-16T17:37:11.587Z,1.80
2019-01-16T17:39:41.651Z,1.80
2019-01-16T17:42:27.814Z,1.70
2019-01-16T17:45:16.050Z,1.80
2019-01-16T17:47:55.079Z,1.80
2019-01-16T17:50:25.167Z,1.80
2019-01-16T17:53:13.169Z,1.90
2019-01-16T17:55:52.167Z,1.90
2019-01-16T17:58:28.227Z,1.90
2019-01-16T18:01:03.964Z,1.90
2019-01-16T18:03:42.977Z,1.90
2019-01-16T18:06:18.808Z,1.80
2019-01-16T18:08:48.850Z,1.80
2019-01-16T18:11:21.569Z,1.80
2019-01-16T18:14:01.508Z,1.80
2019-01-16T18:16:47.436Z,1.80
2019-01-16T18:19:20.402Z,1.80
2019-01-16T18:21:50.496Z,1.80
2019-01-16T18:24:29.594Z,1.70
2019-01-16T18:27:08.818Z,1.80
2019-01-16T18:29:38.890Z,1.80
2019-01-16T18:32:14.950Z,1.80
2019-01-16T18:34:45.022Z,1.80
2019-01-16T18:37:31.457Z,1.80
2019-01-16T18:40:10.603Z,1.90
2019-01-16T18:42:43.636Z,2.00
2019-01-16T18:45:29.937Z,2.00
2019-01-16T18:48:02.664Z,2.00
2019-01-16T18:50:32.737Z,2.00
2019-01-16T18:53:18.966Z,2.00
2019-01-16T18:55:51.949Z,2.00
2019-01-16T18:58:30.744Z,2.00
2019-01-16T19:01:09.847Z,2.00
2019-01-16T19:03:45.620Z,2.00
2019-01-16T19:06:30.458Z,2.10
2019-01-16T19:09:02.420Z,2.00
2019-01-16T19:11:32.453Z,2.00
2019-01-16T19:14:18.174Z,2.00
2019-01-16T19:16:54.022Z,2.00
2019-01-16T19:19:32.946Z,2.00
2019-01-16T19:22:05.972Z,2.00
2019-01-16T19:24:50.706Z,2.00
2019-01-16T19:27:20.773Z,1.90
2019-01-16T19:29:50.861Z,1.90
2019-01-16T19:32:20.927Z,1.90
2019-01-16T19:35:03.147Z,1.90
2019-01-16T19:37:49.215Z,1.90
2019-01-16T19:40:31.067Z,1.90
2019-01-16T19:43:02.183Z,1.90
2019-01-16T19:45:32.327Z,1.90
2019-01-16T19:48:07.881Z,1.90
2019-01-16T19:50:40.974Z,1.90
2019-01-16T19:53:11.072Z,1.90
2019-01-16T19:55:59.001Z,2.00
2019-01-16T19:58:34.791Z,1.90
2019-01-16T20:01:07.579Z,1.90
2019-01-16T20:03:43.737Z,1.90
2019-01-16T20:06:16.614Z,1.90
2019-01-16T20:08:49.420Z,1.90
2019-01-16T20:11:34.409Z,2.00
2019-01-16T20:14:13.462Z,2.00
2019-01-16T20:16:49.324Z,2.00
2019-01-16T20:19:19.372Z,1.90
2019-01-16T20:21:52.367Z,1.90
2019-01-16T20:24:37.282Z,2.00
2019-01-16T20:27:22.522Z,1.90
2019-01-16T20:30:04.755Z,1.90
2019-01-16T20:32:34.903Z,1.90
2019-01-16T20:35:10.020Z,1.90
2019-01-16T20:37:45.497Z,1.90
2019-01-16T20:40:18.568Z,2.00
2019-01-16T20:43:04.892Z,2.00
2019-01-16T20:45:41.002Z,2.00
2019-01-16T20:48:25.704Z,2.00
2019-01-16T20:50:55.783Z,2.00
2019-01-16T20:53:31.625Z,1.90
2019-01-16T20:56:13.654Z,1.90
2019-01-16T20:58:58.575Z,1.90
2019-01-16T21:01:31.598Z,1.90
2019-01-16T21:04:16.787Z,1.90
2019-01-16T21:06:49.511Z,1.80
2019-01-16T21:09:19.594Z,1.80
2019-01-16T21:11:55.368Z,1.80
2019-01-16T21:14:34.546Z,1.70
2019-01-16T21:17:07.662Z,1.70
2019-01-16T21:19:37.816Z,1.60
2019-01-16T21:22:23.678Z,1.60
2019-01-16T21:24:56.548Z,1.60
2019-01-16T21:27:32.435Z,1.50
2019-01-16T21:30:08.437Z,1.50
2019-01-16T21:32:54.524Z,1.40
2019-01-16T21:35:30.477Z,1.40
2019-01-16T21:38:02.974Z,1.40
2019-01-16T21:40:33.041Z,1.50
2019-01-16T21:43:14.929Z,1.50
2019-01-16T21:45:45.018Z,1.50
2019-01-16T21:48:27.243Z,1.50
2019-01-16T21:50:57.276Z,1.50
2019-01-16T21:53:33.212Z,1.50
2019-01-16T21:56:05.741Z,1.50
2019-01-16T21:58:47.849Z,1.50
2019-01-16T22:01:32.834Z,1.50
2019-01-16T22:04:05.606Z,1.50
2019-01-16T22:06:35.647Z,1.50
2019-01-16T22:09:15.150Z,1.50
2019-01-16T22:11:45.379Z,1.40
2019-01-16T22:14:31.474Z,1.40
2019-01-16T22:17:17.585Z,1.40
2019-01-16T22:19:47.652Z,1.40
2019-01-16T22:22:20.102Z,1.40
2019-01-16T22:24:55.894Z,1.40
2019-01-16T22:27:28.878Z,1.40
2019-01-16T22:30:05.049Z,1.40
2019-01-16T22:32:50.950Z,1.40
2019-01-16T22:35:21.000Z,1.40
2019-01-16T22:37:51.045Z,1.30
2019-01-16T22:40:36.278Z,1.30
2019-01-16T22:43:22.310Z,1.30
2019-01-16T22:46:01.171Z,1.30
2019-01-16T22:48:31.272Z,1.30
2019-01-16T22:51:17.285Z,1.30
2019-01-16T22:53:50.306Z,1.20
2019-01-16T22:56:23.082Z,1.20
2019-01-16T22:58:55.714Z,1.20
2019-01-16T23:01:35.090Z,1.20
2019-01-16T23:04:05.180Z,1.20
2019-01-16T23:06:47.366Z,1.20
2019-01-16T23:09:23.390Z,1.20
2019-01-16T23:12:09.553Z,1.10
2019-01-16T23:14:39.610Z,1.10
2019-01-16T23:17:15.597Z,1.00
2019-01-16T23:19:48.356Z,1.00
2019-01-16T23:22:34.516Z,1.00
2019-01-16T23:25:16.393Z,1.00
2019-01-16T23:27:46.481Z,1.00
2019-01-16T23:30:17.341Z,1.00
2019-01-16T23:32:47.389Z,0.90
2019-01-16T23:35:23.547Z,0.90
2019-01-16T23:37:56.309Z,0.90
2019-01-16T23:40:26.382Z,0.90
2019-01-16T23:43:00.571Z,0.90
2019-01-16T23:45:30.610Z,0.90
2019-01-16T23:48:12.501Z,1.00
2019-01-16T23:50:57.139Z,1.00
2019-01-16T23:53:27.300Z,1.00
2019-01-16T23:56:03.334Z,1.00
2019-01-16T23:58:33.442Z,1.00
